Time;durP1;ratioP1;P1;durP2;ratioP2;P2;SDS_P1;SDS_P2;PMS_P1;PMS_P2;Temp;Humidity;BMP_temperature;BMP_pressure;BME280_temperature;BME280_humidity;BME280_pressure;Samples;Min_cycle;Max_cycle;Signal;HPM_P1;HPM_P2
2024/02/13 00:01:41;;;;;;;7.25;2.42;;;6.10;99.90;;;;;;4937498;29;20064;-86
2024/02/13 00:04:10;;;;;;;7.40;2.30;;;5.50;99.90;;;;;;4937129;29;20035;-86
2024/02/13 00:06:37;;;;;;;11.90;2.88;;;6.60;99.90;;;;;;4936284;29;20087;-85
2024/02/13 00:09:06;;;;;;;6.93;2.65;;;5.50;99.90;;;;;;4924319;29;20048;-86
2024/02/13 00:11:33;;;;;;;9.68;2.97;;;6.30;99.90;;;;;;4932398;29;20130;-85
2024/02/13 00:14:00;;;;;;;10.65;2.70;;;5.60;99.90;;;;;;4952819;29;20131;-86
2024/02/13 00:16:26;;;;;;;8.63;2.70;;;5.50;99.90;;;;;;4933052;29;20441;-86
2024/02/13 00:18:53;;;;;;;8.48;2.53;;;5.50;99.90;;;;;;4937057;29;20070;-86
2024/02/13 00:21:20;;;;;;;8.70;2.45;;;5.60;99.90;;;;;;4937096;29;20493;-86
2024/02/13 00:23:47;;;;;;;8.73;2.90;;;5.60;99.90;;;;;;4931606;29;20107;-86
2024/02/13 00:26:14;;;;;;;10.55;2.65;;;6.00;99.90;;;;;;4952721;29;20492;-86
2024/02/13 00:28:41;;;;;;;9.57;2.70;;;6.40;99.90;;;;;;4937329;29;20035;-86
2024/02/13 00:31:08;;;;;;;10.50;2.97;;;6.50;99.90;;;;;;4933609;29;20099;-86
2024/02/13 00:33:35;;;;;;;12.27;2.83;;;5.50;99.90;;;;;;4934086;29;20054;-86
2024/02/13 00:36:02;;;;;;;10.80;2.80;;;5.90;99.90;;;;;;4962959;29;20035;-86
2024/02/13 00:38:29;;;;;;;6.97;3.17;;;5.50;99.90;;;;;;4936942;29;20043;-86
2024/02/13 00:40:56;;;;;;;10.52;3.35;;;6.10;99.90;;;;;;4936986;29;20046;-85
2024/02/13 00:43:23;;;;;;;13.73;3.80;;;5.40;99.90;;;;;;4944689;29;20481;-86
2024/02/13 00:45:50;;;;;;;9.35;3.63;;;5.40;99.90;;;;;;4949663;29;20058;-86
2024/02/13 00:48:17;;;;;;;12.13;3.45;;;5.30;99.90;;;;;;4920653;29;20424;-86
2024/02/13 00:50:46;;;;;;;10.40;3.42;;;5.30;99.90;;;;;;4936893;29;20043;-85
2024/02/13 00:53:15;;;;;;;9.13;3.63;;;5.30;99.90;;;;;;4937870;29;20043;-86
2024/02/13 00:55:43;;;;;;;11.00;3.72;;;5.20;99.90;;;;;;4948741;29;20076;-86
2024/02/13 00:58:09;;;;;;;11.93;4.10;;;5.20;99.90;;;;;;4920735;29;20054;-86
2024/02/13 01:00:39;;;;;;;6.43;3.72;;;5.90;99.90;;;;;;4933965;29;20040;-86
2024/02/13 01:03:07;;;;;;;9.80;3.80;;;5.10;99.90;;;;;;4933507;29;20729;-86
2024/02/13 01:05:37;;;;;;;9.07;4.15;;;5.30;99.90;;;;;;4945835;29;20048;-86
2024/02/13 01:08:04;;;;;;;8.35;4.10;;;5.00;99.90;;;;;;4930172;29;20079;-86
2024/02/13 01:10:31;;;;;;;10.52;4.70;;;4.90;99.90;;;;;;4936313;29;20040;-86
2024/02/13 01:12:59;;;;;;;11.95;4.53;;;4.90;99.90;;;;;;4924233;29;20051;-86
2024/02/13 01:15:26;;;;;;;12.80;4.65;;;4.90;99.90;;;;;;4936260;29;20036;-85
2024/02/13 01:17:54;;;;;;;11.00;5.00;;;4.90;99.90;;;;;;4935334;29;20497;-86
2024/02/13 01:20:23;;;;;;;12.00;5.55;;;5.40;99.90;;;;;;4925220;29;20040;-86
2024/02/13 01:22:50;;;;;;;12.18;5.22;;;4.80;99.90;;;;;;4932314;29;20036;-86
2024/02/13 01:25:18;;;;;;;15.75;6.07;;;5.60;99.90;;;;;;4942283;29;20483;-85
2024/02/13 01:27:46;;;;;;;13.63;5.45;;;5.50;99.90;;;;;;4936261;29;20095;-86
2024/02/13 01:30:16;;;;;;;11.05;5.28;;;5.20;99.90;;;;;;4945227;29;20063;-85
2024/02/13 01:32:42;;;;;;;11.88;6.07;;;5.60;99.90;;;;;;4921355;29;20040;-85
2024/02/13 01:35:11;;;;;;;12.00;5.53;;;4.90;99.90;;;;;;4925134;29;20048;-86
2024/02/13 01:37:39;;;;;;;15.95;5.95;;;4.70;99.90;;;;;;4919981;29;20035;-86
2024/02/13 01:40:07;;;;;;;22.13;6.38;;;4.60;99.90;;;;;;4916889;29;20413;-86
2024/02/13 01:42:37;;;;;;;14.73;5.90;;;4.60;99.90;;;;;;4916953;29;20037;-86
2024/02/13 01:45:10;;;;;;;15.90;7.35;;;4.60;99.90;;;;;;4920860;29;20045;-86
2024/02/13 01:47:41;;;;;;;15.65;6.68;;;4.60;99.90;;;;;;4931127;29;20104;-86
2024/02/13 01:50:17;;;;;;;15.45;6.80;;;4.90;99.90;;;;;;4918499;29;20414;-86
2024/02/13 01:52:45;;;;;;;17.33;7.20;;;4.60;99.90;;;;;;4927260;29;20127;-86
2024/02/13 01:55:14;;;;;;;14.65;6.68;;;4.60;99.90;;;;;;4921785;29;20525;-86
2024/02/13 01:57:42;;;;;;;16.05;6.75;;;4.60;99.90;;;;;;4934398;29;20036;-86
2024/02/13 02:00:13;;;;;;;13.65;6.40;;;5.30;99.90;;;;;;4912745;29;20871;-86
2024/02/13 02:02:46;;;;;;;17.55;7.15;;;4.60;99.90;;;;;;4945456;29;20059;-86
2024/02/13 02:05:13;;;;;;;14.40;6.60;;;4.60;99.90;;;;;;4917859;29;20035;-86
2024/02/13 02:07:40;;;;;;;15.85;6.85;;;4.60;99.90;;;;;;4925589;29;20052;-86
2024/02/13 02:10:08;;;;;;;15.65;6.60;;;4.60;99.90;;;;;;4918096;29;20047;-86
2024/02/13 02:12:35;;;;;;;15.45;7.13;;;4.60;99.90;;;;;;4920766;29;20044;-86
2024/02/13 02:15:03;;;;;;;18.60;6.82;;;4.50;99.90;;;;;;4921100;29;20123;-86
2024/02/13 02:17:29;;;;;;;13.65;7.40;;;4.60;99.90;;;;;;4932269;29;20428;-86
2024/02/13 02:19:56;;;;;;;14.98;6.93;;;4.60;99.90;;;;;;4938762;29;20051;-86
2024/02/13 02:22:23;;;;;;;13.50;6.70;;;5.10;99.90;;;;;;4920742;29;20486;-86
2024/02/13 02:24:50;;;;;;;17.38;7.40;;;4.60;99.90;;;;;;4920615;29;20039;-85
2024/02/13 02:27:17;;;;;;;15.85;7.28;;;4.50;99.90;;;;;;4933076;29;20382;-86
2024/02/13 02:29:44;;;;;;;13.52;7.22;;;4.60;99.90;;;;;;4921116;29;20060;-86
2024/02/13 02:32:11;;;;;;;16.30;6.70;;;4.60;99.90;;;;;;4920176;29;20040;-86
2024/02/13 02:34:39;;;;;;;17.38;7.45;;;5.40;99.90;;;;;;4916538;29;20088;-86
2024/02/13 02:37:06;;;;;;;16.50;7.50;;;4.60;99.90;;;;;;4930919;29;20413;-86
2024/02/13 02:39:33;;;;;;;18.77;7.38;;;5.50;99.90;;;;;;4919451;29;20123;-86
2024/02/13 02:42:00;;;;;;;11.82;6.53;;;4.60;99.90;;;;;;4924930;29;20047;-86
2024/02/13 02:44:27;;;;;;;13.45;6.78;;;4.60;99.90;;;;;;4920036;29;20079;-86
2024/02/13 02:46:54;;;;;;;20.67;7.78;;;4.60;99.90;;;;;;4917717;29;20461;-85
2024/02/13 02:49:20;;;;;;;19.17;7.38;;;4.60;99.90;;;;;;4907699;29;20099;-85
2024/02/13 02:51:47;;;;;;;16.48;7.10;;;5.30;99.90;;;;;;4916984;29;20093;-86
2024/02/13 02:54:14;;;;;;;15.55;7.40;;;4.80;99.90;;;;;;4918088;29;20126;-86
2024/02/13 02:56:41;;;;;;;18.55;7.88;;;5.00;99.90;;;;;;4931704;29;20052;-86
2024/02/13 02:59:08;;;;;;;14.88;7.13;;;4.50;99.90;;;;;;4937654;29;20502;-85
2024/02/13 03:01:34;;;;;;;17.67;7.53;;;4.50;99.90;;;;;;4912071;29;20037;-86
2024/02/13 03:04:03;;;;;;;15.48;7.53;;;4.80;99.90;;;;;;4900900;29;20072;-86
2024/02/13 03:06:30;;;;;;;16.02;7.63;;;4.50;99.90;;;;;;4908904;29;20504;-86
2024/02/13 03:08:57;;;;;;;16.65;7.55;;;5.10;99.90;;;;;;4936313;29;20096;-86
2024/02/13 03:11:23;;;;;;;16.73;8.00;;;4.50;99.90;;;;;;4909268;29;20036;-86
2024/02/13 03:13:51;;;;;;;19.13;7.82;;;4.50;99.90;;;;;;4934280;29;20107;-86
2024/02/13 03:16:17;;;;;;;21.17;8.18;;;4.80;99.90;;;;;;4919474;29;20044;-86
2024/02/13 03:18:45;;;;;;;19.77;7.97;;;5.10;99.90;;;;;;4905137;29;20033;-85
2024/02/13 03:21:12;;;;;;;17.58;8.45;;;5.20;99.90;;;;;;4913085;29;20040;-86
2024/02/13 03:23:39;;;;;;;20.38;9.20;;;4.70;99.90;;;;;;4921710;29;20047;-86
2024/02/13 03:26:05;;;;;;;21.58;8.85;;;5.10;99.90;;;;;;4923564;29;20090;-86
2024/02/13 03:28:32;;;;;;;16.77;9.05;;;4.50;99.90;;;;;;4919233;29;20040;-86
2024/02/13 03:31:00;;;;;;;19.70;9.68;;;4.30;99.90;;;;;;4933518;29;21643;-86
2024/02/13 03:33:26;;;;;;;18.10;9.27;;;4.30;99.90;;;;;;4928202;29;20048;-86
2024/02/13 03:35:54;;;;;;;19.67;9.20;;;4.30;99.90;;;;;;4933851;29;20048;-86
2024/02/13 03:38:21;;;;;;;20.25;9.35;;;4.30;99.90;;;;;;4953419;29;20149;-86
2024/02/13 03:40:48;;;;;;;26.25;9.73;;;4.30;99.90;;;;;;4938167;29;20104;-86
2024/02/13 03:43:14;;;;;;;23.02;9.52;;;4.80;99.90;;;;;;4934067;29;20042;-85
2024/02/13 03:45:41;;;;;;;19.50;9.43;;;4.80;99.90;;;;;;4940128;29;20047;-86
2024/02/13 03:48:08;;;;;;;18.02;9.48;;;4.20;99.90;;;;;;4938300;29;20528;-86
2024/02/13 03:50:34;;;;;;;21.38;9.98;;;4.20;99.90;;;;;;4935796;29;20032;-85
2024/02/13 03:53:01;;;;;;;20.98;9.93;;;4.80;99.90;;;;;;4929822;29;20103;-86
2024/02/13 03:55:28;;;;;;;20.02;10.70;;;4.20;99.90;;;;;;4946866;29;20044;-86
2024/02/13 03:57:55;;;;;;;21.88;10.65;;;4.40;99.90;;;;;;4926992;29;20035;-85
2024/02/13 04:00:22;;;;;;;20.27;10.95;;;4.20;99.90;;;;;;4936639;29;20036;-86
2024/02/13 04:02:48;;;;;;;21.90;10.68;;;4.10;99.90;;;;;;4943140;29;20054;-86
2024/02/13 04:05:15;;;;;;;23.05;10.32;;;4.10;99.90;;;;;;4940518;29;20118;-86
2024/02/13 04:07:43;;;;;;;23.35;10.80;;;4.10;99.90;;;;;;4937795;29;20118;-85
2024/02/13 04:10:10;;;;;;;22.48;10.80;;;4.10;99.90;;;;;;4934082;29;20052;-86
2024/02/13 04:12:37;;;;;;;25.27;10.63;;;4.10;99.90;;;;;;4924607;29;20048;-86
2024/02/13 04:15:04;;;;;;;23.88;11.43;;;4.10;99.90;;;;;;4932358;29;20493;-86
2024/02/13 04:17:30;;;;;;;22.17;10.98;;;4.10;99.90;;;;;;4938016;29;20183;-86
2024/02/13 04:19:57;;;;;;;21.90;11.32;;;4.10;99.90;;;;;;4934911;29;20043;-86
2024/02/13 04:22:25;;;;;;;22.88;10.73;;;4.10;99.90;;;;;;4934477;29;20039;-86
2024/02/13 04:24:51;;;;;;;20.73;10.52;;;4.10;99.90;;;;;;4936645;29;20040;-86
2024/02/13 04:27:19;;;;;;;17.17;10.70;;;4.00;99.90;;;;;;4936878;29;20054;-86
2024/02/13 04:29:45;;;;;;;19.80;11.50;;;4.30;99.90;;;;;;4933555;29;20433;-86
2024/02/13 04:32:12;;;;;;;20.63;11.30;;;4.00;99.90;;;;;;4944316;29;20078;-86
2024/02/13 04:34:39;;;;;;;18.85;10.73;;;4.00;99.90;;;;;;4941577;29;20048;-86
2024/02/13 04:37:06;;;;;;;22.70;11.23;;;3.90;99.90;;;;;;4932437;29;20540;-86
2024/02/13 04:39:32;;;;;;;21.27;10.48;;;4.10;99.90;;;;;;4925982;29;20031;-86
2024/02/13 04:41:59;;;;;;;26.30;11.25;;;3.90;99.90;;;;;;4932316;29;20048;-86
2024/02/13 04:44:26;;;;;;;21.05;11.30;;;5.00;99.90;;;;;;4936827;29;20050;-86
2024/02/13 04:46:55;;;;;;;19.67;10.60;;;4.60;99.90;;;;;;4937363;29;20047;-86
2024/02/13 04:49:24;;;;;;;19.88;10.02;;;4.40;99.90;;;;;;4936199;29;20046;-86
2024/02/13 04:51:51;;;;;;;22.42;11.63;;;3.90;99.90;;;;;;4937401;29;20094;-86
2024/02/13 04:54:18;;;;;;;21.17;11.18;;;3.90;99.90;;;;;;4936811;29;20047;-86
2024/02/13 04:56:45;;;;;;;20.70;10.93;;;4.00;99.90;;;;;;4936956;29;20048;-86
2024/02/13 04:59:15;;;;;;;20.15;10.98;;;4.00;99.90;;;;;;4919061;29;20549;-86
2024/02/13 05:01:45;;;;;;;17.85;11.02;;;4.00;99.90;;;;;;4952158;29;20044;-86
2024/02/13 05:09:26;;;;;;;19.77;10.45;;;4.00;99.90;;;;;;4952440;29;20440;-86
2024/02/13 05:11:53;;;;;;;19.23;10.95;;;4.00;99.90;;;;;;4936341;29;20179;-86
2024/02/13 05:14:20;;;;;;;23.73;11.57;;;4.00;99.90;;;;;;4936475;29;20063;-86
2024/02/13 05:16:47;;;;;;;22.88;10.88;;;4.00;99.90;;;;;;4936340;29;20469;-86
2024/02/13 05:19:15;;;;;;;17.75;10.23;;;4.90;99.90;;;;;;4942049;29;20489;-86
2024/02/13 05:21:42;;;;;;;20.83;12.07;;;5.00;99.90;;;;;;4949002;29;20044;-86
2024/02/13 05:24:09;;;;;;;21.83;10.80;;;4.30;99.90;;;;;;4929904;29;20044;-86
2024/02/13 05:26:36;;;;;;;22.98;11.55;;;3.90;99.90;;;;;;4929562;29;20040;-86
2024/02/13 05:29:03;;;;;;;20.98;11.68;;;4.60;99.90;;;;;;4932436;29;20044;-86
2024/02/13 05:31:30;;;;;;;24.33;11.95;;;3.90;99.90;;;;;;4929393;29;20051;-86
2024/02/13 05:33:57;;;;;;;24.58;11.13;;;4.30;99.90;;;;;;4935002;29;20513;-86
2024/02/13 05:36:25;;;;;;;20.50;11.85;;;3.90;99.90;;;;;;4936681;29;20071;-86
2024/02/13 05:38:52;;;;;;;23.52;11.52;;;3.90;99.90;;;;;;4933479;29;20044;-86
2024/02/13 05:41:19;;;;;;;24.63;10.93;;;3.80;99.90;;;;;;4942406;29;20394;-86
2024/02/13 05:43:45;;;;;;;26.25;12.52;;;4.20;99.90;;;;;;4935842;29;20078;-86
2024/02/13 05:46:13;;;;;;;20.20;11.27;;;4.70;99.90;;;;;;4938992;29;20039;-86
2024/02/13 05:48:42;;;;;;;25.17;12.32;;;3.90;99.90;;;;;;4933059;29;20045;-85
2024/02/13 05:51:11;;;;;;;23.55;11.80;;;4.90;99.90;;;;;;4940657;29;20131;-86
2024/02/13 05:53:41;;;;;;;22.75;11.88;;;4.70;99.90;;;;;;4939519;29;20091;-86
2024/02/13 05:56:08;;;;;;;22.35;11.93;;;3.90;99.90;;;;;;4938404;29;20040;-86
2024/02/13 05:58:35;;;;;;;20.70;11.55;;;4.20;99.90;;;;;;4944937;29;20044;-86
2024/02/13 06:01:03;;;;;;;27.00;12.57;;;3.90;99.90;;;;;;4955607;29;20047;-86
2024/02/13 06:03:32;;;;;;;22.75;12.00;;;3.90;99.90;;;;;;4938976;29;20505;-86
2024/02/13 06:05:59;;;;;;;20.70;12.20;;;4.90;99.90;;;;;;4939762;29;20051;-86
2024/02/13 06:08:26;;;;;;;23.02;11.93;;;5.10;99.90;;;;;;4934300;29;20050;-86
2024/02/13 06:10:53;;;;;;;27.50;12.77;;;4.40;99.90;;;;;;4921055;29;20082;-86
2024/02/13 06:13:20;;;;;;;24.70;12.75;;;3.90;99.90;;;;;;4923595;29;20504;-86
2024/02/13 06:15:46;;;;;;;24.67;12.73;;;4.80;99.90;;;;;;4954984;29;20031;-86
2024/02/13 06:18:13;;;;;;;25.25;12.73;;;4.90;99.90;;;;;;4939760;29;20054;-86
2024/02/13 06:20:40;;;;;;;27.88;12.07;;;3.90;99.90;;;;;;4955155;29;20044;-86
2024/02/13 06:23:06;;;;;;;23.75;12.30;;;4.70;99.90;;;;;;4938857;29;20039;-86
2024/02/13 06:25:33;;;;;;;19.63;12.55;;;4.00;99.90;;;;;;4938901;29;20046;-86
2024/02/13 06:28:00;;;;;;;23.70;12.43;;;3.90;99.90;;;;;;4940678;29;20134;-86
2024/02/13 06:30:27;;;;;;;29.05;14.27;;;3.90;99.90;;;;;;4949199;29;20068;-86
2024/02/13 06:32:53;;;;;;;21.75;12.63;;;4.80;99.90;;;;;;4948549;29;20047;-86
2024/02/13 06:35:20;;;;;;;26.48;12.02;;;3.90;99.90;;;;;;4931835;29;20127;-86
2024/02/13 06:37:47;;;;;;;23.38;12.95;;;4.00;99.90;;;;;;4932241;29;20040;-86
2024/02/13 06:40:14;;;;;;;23.63;13.27;;;4.00;99.90;;;;;;4939136;29;20040;-86
2024/02/13 06:42:41;;;;;;;25.42;13.30;;;4.00;99.90;;;;;;4953960;29;20162;-86
2024/02/13 06:45:09;;;;;;;23.35;12.95;;;4.00;99.90;;;;;;4929738;29;20043;-86
2024/02/13 06:47:37;;;;;;;29.15;14.30;;;4.00;99.90;;;;;;4923282;29;20040;-86
2024/02/13 06:50:10;;;;;;;27.77;14.10;;;4.00;99.90;;;;;;4929189;29;20421;-86
2024/02/13 06:52:37;;;;;;;33.83;14.23;;;4.00;99.90;;;;;;4938322;29;20040;-86
2024/02/13 06:55:04;;;;;;;26.08;13.77;;;4.80;99.90;;;;;;4938185;29;20489;-86
2024/02/13 06:57:34;;;;;;;21.02;12.52;;;4.00;99.90;;;;;;4946614;29;20044;-85
2024/02/13 07:00:13;;;;;;;27.02;14.20;;;4.50;99.90;;;;;;4938006;29;20040;-86
2024/02/13 07:02:40;;;;;;;24.75;13.77;;;4.00;99.90;;;;;;4942926;29;20245;-86
2024/02/13 07:05:08;;;;;;;26.98;13.85;;;3.90;99.90;;;;;;4937944;29;20043;-86
2024/02/13 07:07:35;;;;;;;25.48;13.57;;;3.90;99.90;;;;;;4938525;29;20126;-86
2024/02/13 07:10:03;;;;;;;27.83;13.30;;;4.60;99.90;;;;;;4936476;29;20052;-85
2024/02/13 07:12:30;;;;;;;23.95;14.75;;;3.90;99.90;;;;;;4935439;29;20044;-86
2024/02/13 07:14:56;;;;;;;26.17;14.82;;;3.90;99.90;;;;;;4951248;29;20063;-86
2024/02/13 07:17:23;;;;;;;28.27;14.00;;;3.90;99.90;;;;;;4938460;29;20036;-86
2024/02/13 07:19:51;;;;;;;25.73;13.18;;;3.90;99.90;;;;;;4938145;29;20047;-86
2024/02/13 07:22:17;;;;;;;28.38;14.55;;;3.90;99.90;;;;;;4927856;29;20046;-86
2024/02/13 07:24:44;;;;;;;23.80;13.80;;;3.90;99.90;;;;;;4944640;29;20035;-86
2024/02/13 07:27:11;;;;;;;23.52;13.55;;;3.90;99.90;;;;;;4937811;29;20047;-86
2024/02/13 07:29:40;;;;;;;24.40;13.65;;;3.90;99.90;;;;;;4934725;29;20063;-86
2024/02/13 07:32:10;;;;;;;27.27;13.98;;;4.10;99.90;;;;;;4950456;29;20179;-86
2024/02/13 07:34:41;;;;;;;28.80;14.20;;;3.90;99.90;;;;;;4937877;29;20517;-86
2024/02/13 07:37:08;;;;;;;27.40;14.15;;;4.60;99.90;;;;;;4937910;29;20044;-86
2024/02/13 07:39:35;;;;;;;26.70;14.55;;;4.00;99.90;;;;;;4937422;29;20490;-86
2024/02/13 07:42:02;;;;;;;28.23;14.32;;;5.20;99.90;;;;;;4937768;29;20040;-86
2024/02/13 07:44:29;;;;;;;24.67;13.50;;;3.90;99.90;;;;;;4939923;29;20696;-86
2024/02/13 07:46:59;;;;;;;23.83;13.73;;;4.00;99.90;;;;;;4937343;29;20126;-86
2024/02/13 07:49:25;;;;;;;31.00;14.55;;;4.00;99.90;;;;;;4951724;29;20044;-86
2024/02/13 07:51:52;;;;;;;27.58;14.38;;;4.90;99.90;;;;;;4936687;29;20050;-86
2024/02/13 07:54:21;;;;;;;26.50;13.65;;;5.00;99.90;;;;;;4929761;29;20058;-86
2024/02/13 07:56:48;;;;;;;21.05;13.15;;;4.00;99.90;;;;;;4935984;29;20075;-86
2024/02/13 07:59:15;;;;;;;23.13;13.52;;;4.10;99.90;;;;;;4952030;29;20039;-86
2024/02/13 08:01:44;;;;;;;23.85;13.95;;;4.10;99.90;;;;;;4934077;29;20055;-86
2024/02/13 08:04:12;;;;;;;28.90;14.13;;;4.80;99.90;;;;;;4935836;29;20079;-86
2024/02/13 08:06:38;;;;;;;33.70;14.80;;;4.20;99.90;;;;;;4950315;29;20095;-86
2024/02/13 08:09:05;;;;;;;24.10;13.80;;;5.10;99.90;;;;;;4932858;29;20044;-86
2024/02/13 08:11:32;;;;;;;23.40;13.57;;;4.20;99.90;;;;;;4960409;29;20130;-87
2024/02/13 08:13:59;;;;;;;28.40;13.55;;;4.30;99.90;;;;;;4937086;29;20055;-87
2024/02/13 08:16:29;;;;;;;24.35;13.05;;;4.30;99.90;;;;;;4937088;29;20035;-86
2024/02/13 08:18:56;;;;;;;28.70;14.25;;;4.40;99.90;;;;;;4937163;29;20039;-86
2024/02/13 08:21:22;;;;;;;31.15;13.90;;;4.80;99.90;;;;;;4938293;29;20039;-86
2024/02/13 08:23:49;;;;;;;25.08;13.05;;;4.70;99.90;;;;;;4933313;29;20485;-86
2024/02/13 08:26:16;;;;;;;22.50;13.10;;;4.50;99.90;;;;;;4936687;29;20047;-86
2024/02/13 08:28:44;;;;;;;22.15;13.10;;;5.80;99.90;;;;;;4951701;29;20044;-86
2024/02/13 08:31:11;;;;;;;24.73;13.45;;;5.50;99.90;;;;;;4936430;29;20067;-86
2024/02/13 08:33:37;;;;;;;28.23;13.38;;;5.80;99.90;;;;;;4936440;29;20048;-86
2024/02/13 08:36:04;;;;;;;22.85;13.07;;;5.30;99.90;;;;;;4932596;29;20054;-86
2024/02/13 08:38:31;;;;;;;22.33;12.93;;;4.80;99.90;;;;;;4936977;29;20046;-86
2024/02/13 08:40:58;;;;;;;24.63;12.98;;;5.50;99.90;;;;;;4938382;29;20032;-87
2024/02/13 08:43:24;;;;;;;27.45;13.05;;;4.90;99.90;;;;;;4933861;29;20039;-86
2024/02/13 08:45:51;;;;;;;19.13;12.23;;;4.90;99.90;;;;;;4937043;29;20500;-86
2024/02/13 08:48:18;;;;;;;26.45;12.70;;;5.40;99.90;;;;;;4936764;29;20130;-86
2024/02/13 08:50:44;;;;;;;29.23;13.30;;;5.60;99.90;;;;;;4933654;29;20039;-86
2024/02/13 08:53:11;;;;;;;18.60;11.95;;;5.00;99.90;;;;;;4950442;29;20107;-85
2024/02/13 08:55:39;;;;;;;21.73;12.40;;;5.00;99.90;;;;;;4936339;29;20788;-86
2024/02/13 08:58:05;;;;;;;22.63;12.48;;;5.10;99.90;;;;;;4936261;29;20131;-86
2024/02/13 09:00:35;;;;;;;17.67;11.73;;;5.10;99.90;;;;;;4936719;29;20475;-86
2024/02/13 09:03:02;;;;;;;19.15;11.07;;;5.20;99.90;;;;;;4946750;29;20044;-86
2024/02/13 09:05:28;;;;;;;21.98;11.52;;;5.20;99.90;;;;;;4936430;29;20036;-87
2024/02/13 09:07:55;;;;;;;19.88;11.38;;;5.30;99.90;;;;;;4936456;29;20134;-86
2024/02/13 09:10:22;;;;;;;27.20;11.10;;;6.20;99.90;;;;;;4935963;29;20039;-87
2024/02/13 09:12:48;;;;;;;21.73;11.75;;;5.30;99.90;;;;;;4936058;29;20050;-86
2024/02/13 09:15:15;;;;;;;22.05;10.00;;;5.40;99.90;;;;;;4936819;29;20102;-90
2024/02/13 09:17:43;;;;;;;21.33;11.18;;;5.40;99.90;;;;;;4935473;29;20044;-89
2024/02/13 09:20:14;;;;;;;20.50;10.80;;;5.50;99.90;;;;;;4937900;29;20055;-89
2024/02/13 09:22:44;;;;;;;18.95;9.65;;;5.60;99.90;;;;;;4940386;29;20393;-89
2024/02/13 09:25:19;;;;;;;18.75;10.02;;;5.70;99.90;;;;;;4940673;29;20035;-89
2024/02/13 09:27:48;;;;;;;18.88;9.73;;;5.70;99.90;;;;;;4929565;29;20047;-89
2024/02/13 09:30:16;;;;;;;20.58;9.38;;;5.70;99.90;;;;;;4940551;29;20055;-88
2024/02/13 09:32:44;;;;;;;17.70;9.55;;;5.80;99.90;;;;;;4932820;29;20047;-89
2024/02/13 09:35:10;;;;;;;16.52;9.18;;;6.50;99.90;;;;;;4921951;29;20036;-88
2024/02/13 09:37:40;;;;;;;17.75;8.90;;;5.90;99.90;;;;;;4941947;29;20051;-89
2024/02/13 09:40:13;;;;;;;23.27;8.98;;;6.00;99.90;;;;;;4944126;29;20501;-89
2024/02/13 09:42:41;;;;;;;20.20;8.73;;;6.00;99.90;;;;;;4918149;29;20079;-89
2024/02/13 09:45:09;;;;;;;15.73;9.30;;;6.10;99.90;;;;;;4921274;29;20047;-89
2024/02/13 09:47:38;;;;;;;23.23;9.57;;;6.10;99.90;;;;;;4916102;29;20044;-89
2024/02/13 09:50:09;;;;;;;14.30;8.63;;;6.20;99.90;;;;;;4924035;29;20044;-88
2024/02/13 09:52:40;;;;;;;18.33;8.80;;;6.20;99.90;;;;;;4915662;29;20037;-88
2024/02/13 09:55:10;;;;;;;20.08;8.43;;;6.70;99.90;;;;;;4915636;29;21404;-88
2024/02/13 09:57:41;;;;;;;13.27;7.75;;;6.40;99.90;;;;;;4915532;29;20088;-89
2024/02/13 10:00:08;;;;;;;20.23;7.97;;;6.50;99.90;;;;;;4919119;29;20123;-88
2024/02/13 10:02:41;;;;;;;16.95;7.85;;;6.50;99.90;;;;;;4925676;29;20075;-88
2024/02/13 10:05:10;;;;;;;15.70;7.88;;;6.60;99.90;;;;;;4919770;29;20454;-88
2024/02/13 10:07:38;;;;;;;16.45;7.28;;;6.70;99.90;;;;;;4922713;29;20044;-88
2024/02/13 10:10:12;;;;;;;20.25;7.68;;;7.80;99.90;;;;;;4924896;29;20094;-88
2024/02/13 10:12:49;;;;;;;12.02;7.03;;;6.80;99.90;;;;;;4909371;29;20044;-88
2024/02/13 10:15:16;;;;;;;15.07;7.85;;;6.80;99.90;;;;;;4919242;29;20052;-88
2024/02/13 10:17:44;;;;;;;15.27;7.65;;;6.80;99.90;;;;;;4918231;29;20043;-88
2024/02/13 10:20:14;;;;;;;17.25;8.48;;;6.90;99.90;;;;;;4921025;29;20044;-88
2024/02/13 10:22:46;;;;;;;13.27;7.07;;;6.90;99.90;;;;;;4920151;29;20036;-88
2024/02/13 10:25:21;;;;;;;18.55;7.38;;;7.80;99.90;;;;;;4936875;29;20085;-88
2024/02/13 10:27:49;;;;;;;16.08;7.78;;;7.00;99.90;;;;;;4913736;29;20063;-88
2024/02/13 10:30:27;;;;;;;14.15;6.57;;;7.10;99.90;;;;;;4932685;29;20054;-88
2024/02/13 10:32:55;;;;;;;16.15;6.80;;;7.50;99.90;;;;;;4935862;29;20044;-88
2024/02/13 10:35:23;;;;;;;16.73;7.53;;;7.50;99.90;;;;;;4965134;29;20058;-88
2024/02/13 10:37:50;;;;;;;13.50;6.70;;;7.10;99.90;;;;;;4940037;29;20040;-88
2024/02/13 10:40:24;;;;;;;15.70;7.28;;;7.10;99.90;;;;;;4939957;29;20035;-88
2024/02/13 10:42:52;;;;;;;13.00;7.07;;;7.10;99.90;;;;;;4939694;29;20046;-88
2024/02/13 10:45:23;;;;;;;14.05;6.90;;;8.20;99.90;;;;;;4939540;29;20047;-88
2024/02/13 10:47:51;;;;;;;17.35;7.82;;;8.30;99.90;;;;;;4939258;29;20070;-87
2024/02/13 10:50:24;;;;;;;15.60;7.43;;;7.80;99.90;;;;;;4939457;29;20572;-88
2024/02/13 10:52:54;;;;;;;12.85;6.55;;;7.30;99.90;;;;;;4954786;29;20051;-88
2024/02/13 10:55:21;;;;;;;15.65;6.53;;;8.10;99.90;;;;;;4954564;29;20047;-88
2024/02/13 10:57:50;;;;;;;12.25;6.50;;;7.30;99.90;;;;;;4939796;29;20032;-89
2024/02/13 11:00:20;;;;;;;13.38;5.93;;;7.80;99.90;;;;;;4939354;29;20039;-87
2024/02/13 11:02:51;;;;;;;16.20;6.50;;;7.40;99.90;;;;;;4933385;29;20040;-86
2024/02/13 11:05:18;;;;;;;11.80;6.70;;;8.50;99.90;;;;;;4938783;29;20043;-86
2024/02/13 11:07:46;;;;;;;10.93;6.07;;;7.50;99.90;;;;;;4952478;29;20134;-87
2024/02/13 11:10:13;;;;;;;15.60;6.05;;;7.50;99.90;;;;;;4953570;29;20048;-87
2024/02/13 11:12:40;;;;;;;12.07;5.85;;;7.60;99.90;;;;;;4938419;29;20048;-87
2024/02/13 11:15:15;;;;;;;16.45;6.43;;;8.30;99.90;;;;;;4938528;29;20043;-87
2024/02/13 11:17:55;;;;;;;12.07;6.40;;;7.60;99.90;;;;;;4956219;29;20031;-87
2024/02/13 11:20:24;;;;;;;17.38;6.20;;;7.60;99.90;;;;;;4936222;29;20027;-87
2024/02/13 11:22:53;;;;;;;13.93;6.07;;;7.60;99.90;;;;;;4937284;29;20032;-87
2024/02/13 11:25:28;;;;;;;13.35;6.15;;;7.60;99.90;;;;;;4933494;29;20520;-87
2024/02/13 11:28:03;;;;;;;14.18;6.47;;;7.60;99.90;;;;;;4937918;29;20043;-87
2024/02/13 11:30:29;;;;;;;12.23;5.73;;;7.70;99.90;;;;;;4926958;29;20508;-87
2024/02/13 11:33:05;;;;;;;20.38;6.65;;;7.60;99.90;;;;;;4938002;29;20288;-88
2024/02/13 11:35:44;;;;;;;11.32;6.43;;;8.00;99.90;;;;;;4938543;29;20044;-87
2024/02/13 11:38:15;;;;;;;13.07;6.20;;;7.60;99.90;;;;;;4932273;29;20047;-87
2024/02/13 11:40:44;;;;;;;13.15;7.13;;;8.00;99.90;;;;;;4938989;29;20476;-87
2024/02/13 11:43:20;;;;;;;15.23;7.20;;;8.10;99.90;;;;;;4952906;29;20205;-88
2024/02/13 11:45:47;;;;;;;16.88;6.88;;;8.00;99.90;;;;;;4954133;29;20044;-87
2024/02/13 11:48:20;;;;;;;14.43;5.95;;;7.70;99.90;;;;;;4938607;29;20036;-87
2024/02/13 11:50:47;;;;;;;11.27;5.68;;;8.80;99.90;;;;;;4961823;29;20055;-87
2024/02/13 11:53:17;;;;;;;15.50;5.40;;;8.20;99.90;;;;;;4942424;29;20115;-87
2024/02/13 11:55:48;;;;;;;9.85;5.60;;;7.90;99.90;;;;;;4929208;29;20405;-87
2024/02/13 11:58:21;;;;;;;14.38;5.57;;;8.40;99.90;;;;;;4933292;29;20043;-87
2024/02/13 12:01:03;;;;;;;12.13;5.38;;;8.60;99.90;;;;;;4951606;29;20035;-87
2024/02/13 12:03:32;;;;;;;14.85;5.50;;;8.00;99.90;;;;;;4937495;29;20063;-86
2024/02/13 12:06:01;;;;;;;14.05;5.75;;;8.00;99.90;;;;;;4937693;29;20043;-87
2024/02/13 12:08:30;;;;;;;9.20;5.15;;;8.30;99.90;;;;;;4953333;29;20042;-86
2024/02/13 12:11:00;;;;;;;13.30;6.68;;;8.00;99.90;;;;;;4933093;29;20075;-87
2024/02/13 12:13:30;;;;;;;13.10;5.75;;;8.60;99.90;;;;;;4948512;29;20044;-87
2024/02/13 12:15:58;;;;;;;14.98;6.57;;;8.00;99.90;;;;;;4937379;29;20512;-87
2024/02/13 12:18:29;;;;;;;16.77;5.97;;;8.60;99.90;;;;;;4925155;29;20040;-87
2024/02/13 12:20:58;;;;;;;11.43;5.50;;;8.70;99.90;;;;;;4935813;29;20088;-86
2024/02/13 12:23:26;;;;;;;13.02;5.80;;;8.40;99.90;;;;;;4937025;29;20036;-87
2024/02/13 12:26:04;;;;;;;11.45;5.65;;;8.10;99.90;;;;;;4940420;29;20039;-87
2024/02/13 12:28:32;;;;;;;11.10;5.70;;;8.30;99.90;;;;;;4953364;29;20170;-87
2024/02/13 12:31:02;;;;;;;12.98;5.95;;;8.40;99.90;;;;;;4938943;29;20058;-87
2024/02/13 12:33:29;;;;;;;13.75;5.30;;;8.40;99.90;;;;;;4937252;29;20043;-86
2024/02/13 12:36:18;;;;;;;11.40;4.78;;;9.20;99.90;;;;;;4941521;29;20043;-86
2024/02/13 12:38:45;;;;;;;10.15;4.60;;;8.40;99.90;;;;;;4957763;29;20110;-86
2024/02/13 12:41:12;;;;;;;10.65;5.20;;;8.40;99.90;;;;;;4937449;29;20393;-87
2024/02/13 12:43:41;;;;;;;12.57;5.35;;;8.40;99.90;;;;;;4937444;29;20040;-87
2024/02/13 12:46:10;;;;;;;12.63;4.88;;;8.80;99.90;;;;;;4934171;29;20039;-87
2024/02/13 12:48:37;;;;;;;15.55;7.70;;;8.40;99.90;;;;;;4935768;29;20047;-87
2024/02/13 12:51:04;;;;;;;17.02;6.57;;;8.80;99.90;;;;;;4952902;29;20098;-87
2024/02/13 12:53:33;;;;;;;13.02;5.75;;;8.40;99.90;;;;;;4936878;29;20497;-86